Terminal Aerodrome Forecast
Issued by NWS Melbourne, FL

Home | Current Version | Previous Version | Text Only | Print | Product List | Glossary On
Versions: 1 2 3 4 5 6 7 8 9 10 11 12 13 14 15 16
000
FTUS42 KMLB 110500
TAFVRB
TAF
KVRB 110537Z 1106/1206 18003KT P6SM SCT250
     FM111300 11005KT P6SM FEW030 BKN250
     FM111600 10010KT P6SM SCT030 SCT100
     FM120300 12004KT P6SM SCT100 BKN250=

USA.gov is the U.S. government's official web portal to all federal, state and local government web resources and services.